Coronel Brandsen, Argentina
Current Conditions -  °F | °C
As of 3:00 AM on Wednesday 28 Jan 2015 (Local Time) from SAEZ Reporting Station
Scattered Clouds Scattered Clouds  
Wind Chill: 82°   Ceiling: Unl
Heat Index: 86°   Visibility: 6mi
Dew Point: 70°   Wind: 7mph
Humidity: 66%   Direction: 340°NNW
Pressure: 29.71"   Gusts: NA
Location:  35.17°S, 58.23°W
Report Text: SAEZ 280600Z 34006KT 9999 FEW030 FEW050CB SCT100 28/21 Q1006
Loading
Personal Weather Stations






























Interactive Weather Map New forecast layout! Learn more

10-Day Weather Forecast

Advertisements
Track Severe Weather on mobile